createdAt,value
2023-04-02T00:01:04.522Z,97703.81
2023-04-02T00:03:10.600Z,97714.47
2023-04-02T00:05:17.690Z,97714.47
2023-04-02T00:07:30.857Z,97719.13
2023-04-02T00:09:39.247Z,97716.69
2023-04-02T00:11:44.797Z,97713.16
2023-04-02T00:13:55.298Z,97719.72
2023-04-02T00:15:58.640Z,97721.34
2023-04-02T00:18:04.167Z,97717.78
2023-04-02T00:20:10.051Z,97719.72
2023-04-02T00:22:21.186Z,97729.84
2023-04-02T00:24:22.705Z,97724.38
2023-04-02T00:26:38.168Z,97735.31
2023-04-02T00:28:42.317Z,97728.75
2023-04-02T00:30:53.009Z,97728.22
2023-04-02T00:32:54.617Z,97735.63
2023-04-02T00:34:57.346Z,97733.72
2023-04-02T00:37:02.831Z,97734.53
2023-04-02T00:39:13.632Z,97746.56
2023-04-02T00:41:28.711Z,97740.28
2023-04-02T00:43:38.372Z,97737.31
2023-04-02T00:45:41.132Z,97751.81
2023-04-02T00:47:43.524Z,97744.41
2023-04-02T00:49:48.568Z,97739.75
2023-04-02T00:51:57.858Z,97746.31
2023-04-02T00:54:04.271Z,97747.16
2023-04-02T00:56:16.927Z,97743.59
2023-04-02T00:58:27.805Z,97750.19
2023-04-02T01:00:34.712Z,97747.44
2023-04-02T01:02:40.988Z,97754.03
2023-04-02T01:04:54.039Z,97755.66
2023-04-02T01:06:56.738Z,97758.41
2023-04-02T01:09:06.481Z,97760.63
2023-04-02T01:11:27.055Z,97761.72
2023-04-02T01:13:43.479Z,97768.84
2023-04-02T01:16:20.031Z,97764.44
2023-04-02T01:18:33.224Z,97769.09
2023-04-02T01:20:51.627Z,97767.50
2023-04-02T01:23:05.840Z,97770.22
2023-04-02T01:25:08.543Z,97766.66
2023-04-02T01:27:28.710Z,97775.97
2023-04-02T01:29:40.250Z,97774.06
2023-04-02T01:31:44.238Z,97773.25
2023-04-02T01:33:47.682Z,97777.63
2023-04-02T01:35:57.560Z,97775.97
2023-04-02T01:38:11.836Z,97778.72
2023-04-02T01:40:21.484Z,97779.84
2023-04-02T01:42:37.946Z,97785.31
2023-04-02T01:44:51.337Z,97787.22
2023-04-02T01:46:53.027Z,97784.50
2023-04-02T01:48:55.866Z,97786.09
2023-04-02T01:51:00.356Z,97790.78
2023-04-02T01:53:10.088Z,97796.25
2023-04-02T01:55:13.465Z,97794.63
2023-04-02T01:57:16.602Z,97791.56
2023-04-02T01:59:22.224Z,97793.78
2023-04-02T02:01:36.076Z,97797.66
2023-04-02T02:03:41.059Z,97798.19
2023-04-02T02:05:43.478Z,97801.75
2023-04-02T02:07:45.788Z,97801.75
2023-04-02T02:09:53.655Z,97806.38
2023-04-02T02:12:00.142Z,97795.44
2023-04-02T02:14:12.010Z,97809.13
2023-04-02T02:16:17.882Z,97809.13
2023-04-02T02:18:23.610Z,97809.13
2023-04-02T02:20:27.958Z,97820.06
2023-04-02T02:22:42.198Z,97816.50
2023-04-02T02:24:47.744Z,97815.69
2023-04-02T02:27:01.795Z,97817.59
2023-04-02T02:29:07.422Z,97824.72
2023-04-02T02:31:21.716Z,97825.81
2023-04-02T02:33:45.960Z,97831.28
2023-04-02T02:35:56.758Z,97831.28
2023-04-02T02:38:34.086Z,97829.38
2023-04-02T02:40:58.994Z,97842.25
2023-04-02T02:43:04.385Z,97841.47
2023-04-02T02:45:15.239Z,97837.06
2023-04-02T02:47:22.574Z,97841.47
2023-04-02T02:49:28.703Z,97851.59
2023-04-02T02:51:47.219Z,97840.63
2023-04-02T02:54:02.976Z,97853.78
2023-04-02T02:56:05.303Z,97857.31
2023-04-02T02:58:32.184Z,97858.16
2023-04-02T03:00:46.862Z,97861.72
2023-04-02T03:02:50.039Z,97856.22
2023-04-02T03:05:05.706Z,97862.53
2023-04-02T03:07:09.082Z,97865.28
2023-04-02T03:09:21.143Z,97868.00
2023-04-02T03:11:49.287Z,97871.84
2023-04-02T03:14:03.515Z,97872.97
2023-04-02T03:16:25.297Z,97871.84
2023-04-02T03:19:02.591Z,97874.88
2023-04-02T03:21:10.238Z,97881.16
2023-04-02T03:23:23.960Z,97881.72
2023-04-02T03:25:44.332Z,97886.09
2023-04-02T03:27:49.319Z,97879.53
2023-04-02T03:30:06.097Z,97894.03
2023-04-02T03:32:37.405Z,97890.78
2023-04-02T03:34:48.055Z,97895.41
2023-04-02T03:37:00.775Z,97897.84
2023-04-02T03:39:17.275Z,97898.16
2023-04-02T03:41:51.727Z,97902.00
2023-04-02T03:44:03.275Z,97901.72
2023-04-02T03:46:16.893Z,97894.31
2023-04-02T03:48:35.769Z,97902.50
2023-04-02T03:50:44.096Z,97905.25
2023-04-02T03:52:45.967Z,97902.50
2023-04-02T03:54:53.700Z,97909.94
2023-04-02T03:56:59.692Z,97910.72
2023-04-02T03:59:26.809Z,97920.06
2023-04-02T04:01:36.335Z,97910.72
2023-04-02T04:03:45.765Z,97918.41
2023-04-02T04:05:56.166Z,97920.88
2023-04-02T04:08:05.604Z,97920.06
2023-04-02T04:10:15.274Z,97924.72
2023-04-02T04:12:31.275Z,97932.09
2023-04-02T04:14:41.646Z,97939.22
2023-04-02T04:17:04.524Z,97942.78
2023-04-02T04:19:38.110Z,97942.78
2023-04-02T04:21:44.988Z,97952.91
2023-04-02T04:23:52.891Z,97949.63
2023-04-02T04:26:01.081Z,97946.59
2023-04-02T04:28:30.585Z,97946.91
2023-04-02T04:30:47.051Z,97951.78
2023-04-02T04:32:58.953Z,97959.47
2023-04-02T04:35:19.374Z,97955.13
2023-04-02T04:37:29.181Z,97964.13
2023-04-02T04:39:40.952Z,97962.22
2023-04-02T04:41:45.932Z,97964.94
2023-04-02T04:43:55.680Z,97973.97
2023-04-02T04:46:03.918Z,97974.81
2023-04-02T04:48:37.648Z,97975.38
2023-04-02T04:51:07.133Z,97989.06
2023-04-02T04:53:17.489Z,97988.53
2023-04-02T04:55:30.752Z,97982.22
2023-04-02T04:57:36.996Z,97990.16
2023-04-02T04:59:51.860Z,97996.19
2023-04-02T05:02:01.971Z,98002.75
2023-04-02T05:04:06.660Z,97991.50
2023-04-02T05:06:23.452Z,98000.00
2023-04-02T05:08:33.677Z,97999.19
2023-04-02T05:10:49.718Z,98008.22
2023-04-02T05:12:58.328Z,98013.69
2023-04-02T05:15:14.356Z,98004.66
2023-04-02T05:17:42.766Z,98016.16
2023-04-02T05:19:51.531Z,98019.16
2023-04-02T05:22:12.475Z,98017.25
2023-04-02T05:24:28.949Z,98013.69
2023-04-02T05:26:40.602Z,98020.81
2023-04-02T05:29:10.562Z,98028.19
2023-04-02T05:31:26.295Z,98029.03
2023-04-02T05:33:31.084Z,98033.38
2023-04-02T05:35:41.906Z,98034.22
2023-04-02T05:37:44.810Z,98039.38
2023-04-02T05:39:55.706Z,98042.94
2023-04-02T05:42:03.479Z,98046.50
2023-04-02T05:44:28.556Z,98045.69
2023-04-02T05:46:40.503Z,98055.56
2023-04-02T05:48:44.968Z,98053.63
2023-04-02T05:50:54.501Z,98057.16
2023-04-02T05:53:12.752Z,98048.97
2023-04-02T05:55:17.058Z,98063.47
2023-04-02T05:57:39.829Z,98058.53
2023-04-02T05:59:49.631Z,98059.66
2023-04-02T06:02:03.374Z,98064.00
2023-04-02T06:04:50.076Z,98070.59
2023-04-02T06:07:04.385Z,98072.22
2023-04-02T06:09:13.371Z,98077.69
2023-04-02T06:11:23.896Z,98086.72
2023-04-02T06:13:28.004Z,98085.63
2023-04-02T06:15:32.851Z,98086.47
2023-04-02T06:18:17.610Z,98097.41
2023-04-02T06:20:21.329Z,98090.81
2023-04-02T06:22:35.032Z,98098.22
2023-04-02T06:24:43.332Z,98101.50
2023-04-02T06:26:56.418Z,98110.00
2023-04-02T06:29:04.920Z,98116.00
2023-04-02T06:31:14.128Z,98110.81
2023-04-02T06:33:19.056Z,98115.19
2023-04-02T06:35:21.879Z,98125.03
2023-04-02T06:37:45.221Z,98131.34
2023-04-02T06:39:51.668Z,98133.00
2023-04-02T06:42:13.465Z,98137.38
2023-04-02T06:44:44.798Z,98146.69
2023-04-02T06:47:13.222Z,98145.59
2023-04-02T06:49:29.531Z,98149.16
2023-04-02T06:51:36.754Z,98159.28
2023-04-02T06:53:42.854Z,98162.31
2023-04-02T06:55:55.139Z,98164.50
2023-04-02T06:58:01.267Z,98174.63
2023-04-02T07:00:04.026Z,98171.59
2023-04-02T07:02:38.954Z,98184.47
2023-04-02T07:04:45.838Z,98190.78
2023-04-02T07:06:47.890Z,98187.19
2023-04-02T07:08:53.576Z,98198.16
2023-04-02T07:10:57.053Z,98205.59
2023-04-02T07:13:02.410Z,98209.72
2023-04-02T07:15:04.654Z,98213.00
2023-04-02T07:17:06.770Z,98220.69
2023-04-02T07:19:19.498Z,98226.69
2023-04-02T07:21:22.496Z,98227.53
2023-04-02T07:23:37.920Z,98226.16
2023-04-02T07:25:45.255Z,98231.59
2023-04-02T07:27:56.113Z,98240.91
2023-04-02T07:29:57.698Z,98248.56
2023-04-02T07:31:59.197Z,98258.69
2023-04-02T07:34:01.061Z,98257.88
2023-04-02T07:36:06.179Z,98254.59
2023-04-02T07:38:10.811Z,98264.69
2023-04-02T07:40:21.266Z,98266.06
2023-04-02T07:42:22.750Z,98271.25
2023-04-02T07:44:24.357Z,98274.81
2023-04-02T07:46:26.477Z,98280.81
2023-04-02T07:48:30.291Z,98281.41
2023-04-02T07:50:31.729Z,98292.88
2023-04-02T07:52:33.216Z,98299.72
2023-04-02T07:54:35.947Z,98299.44
2023-04-02T07:56:38.505Z,98305.19
2023-04-02T07:58:42.739Z,98310.66
2023-04-02T08:00:44.200Z,98314.75
2023-04-02T08:02:46.112Z,98312.25
2023-04-02T08:04:48.328Z,98326.75
2023-04-02T08:06:50.526Z,98334.72
2023-04-02T08:08:52.224Z,98337.16
2023-04-02T08:10:57.821Z,98340.97
2023-04-02T08:12:59.314Z,98337.69
2023-04-02T08:15:05.739Z,98340.72
2023-04-02T08:17:07.249Z,98349.75
2023-04-02T08:19:08.705Z,98351.13
2023-04-02T08:21:17.174Z,98359.03
2023-04-02T08:23:18.930Z,98358.50
2023-04-02T08:25:20.668Z,98365.03
2023-04-02T08:27:26.398Z,98362.59
2023-04-02T08:29:32.399Z,98372.97
2023-04-02T08:31:33.903Z,98371.59
2023-04-02T08:33:35.728Z,98376.25
2023-04-02T08:35:37.527Z,98382.53
2023-04-02T08:37:39.487Z,98378.66
2023-04-02T08:39:43.987Z,98391.25
2023-04-02T08:41:55.990Z,98398.09
2023-04-02T08:44:24.120Z,98398.91
2023-04-02T08:47:06.910Z,98403.78
2023-04-02T08:49:13.933Z,98415.84
2023-04-02T08:51:23.627Z,98415.84
2023-04-02T08:53:29.499Z,98419.09
2023-04-02T08:55:48.493Z,98425.66
2023-04-02T08:58:14.855Z,98428.97
2023-04-02T09:00:42.966Z,98435.22
2023-04-02T09:02:56.391Z,98439.31
2023-04-02T09:05:03.281Z,98436.59
2023-04-02T09:07:17.015Z,98444.25
2023-04-02T09:09:19.300Z,98447.28
2023-04-02T09:11:32.586Z,98456.88
2023-04-02T09:13:37.774Z,98458.50
2023-04-02T09:15:39.479Z,98456.34
2023-04-02T09:17:53.218Z,98461.81
2023-04-02T09:20:13.364Z,98475.50
2023-04-02T09:22:29.277Z,98475.19
2023-04-02T09:24:30.913Z,98480.94
2023-04-02T09:26:38.402Z,98492.38
2023-04-02T09:28:39.984Z,98487.44
2023-04-02T09:31:00.179Z,98499.47
2023-04-02T09:33:09.548Z,98500.81
2023-04-02T09:35:31.039Z,98512.53
2023-04-02T09:37:35.112Z,98518.56
2023-04-02T09:39:36.796Z,98518.00
2023-04-02T09:41:38.601Z,98523.47
2023-04-02T09:43:43.340Z,98524.59
2023-04-02T09:45:55.977Z,98524.00
2023-04-02T09:47:58.090Z,98530.00
2023-04-02T09:50:15.496Z,98537.63
2023-04-02T09:52:29.848Z,98537.34
2023-04-02T09:54:31.395Z,98539.81
2023-04-02T09:56:38.262Z,98538.19
2023-04-02T09:58:41.870Z,98544.72
2023-04-02T10:00:51.344Z,98548.25
2023-04-02T10:03:19.630Z,98547.97
2023-04-02T10:05:39.432Z,98558.06
2023-04-02T10:07:47.244Z,98554.81
2023-04-02T10:09:58.628Z,98564.41
2023-04-02T10:12:02.225Z,98562.25
2023-04-02T10:14:09.933Z,98566.69
2023-04-02T10:16:32.852Z,98568.06
2023-04-02T10:18:48.023Z,98574.66
2023-04-02T10:20:52.908Z,98576.06
2023-04-02T10:22:54.479Z,98582.13
2023-04-02T10:24:58.775Z,98576.94
2023-04-02T10:27:17.377Z,98587.63
2023-04-02T10:29:36.870Z,98583.81
2023-04-02T10:31:52.546Z,98591.50
2023-04-02T10:34:04.281Z,98588.25
2023-04-02T10:36:39.249Z,98586.59
2023-04-02T10:38:48.519Z,98600.53
2023-04-02T10:41:11.358Z,98600.78
2023-04-02T10:43:57.813Z,98604.31
2023-04-02T10:46:45.474Z,98610.31
2023-04-02T10:49:01.764Z,98619.63
2023-04-02T10:51:35.411Z,98617.91
2023-04-02T10:53:55.565Z,98628.34
2023-04-02T10:56:05.530Z,98630.25
2023-04-02T10:58:29.332Z,98635.44
2023-04-02T11:00:35.189Z,98637.34
2023-04-02T11:03:05.992Z,98635.66
2023-04-02T11:05:25.605Z,98642.25
2023-04-02T11:07:30.964Z,98644.16
2023-04-02T11:09:37.391Z,98651.78
2023-04-02T11:11:42.794Z,98651.53
2023-04-02T11:14:00.946Z,98657.81
2023-04-02T11:16:03.702Z,98659.72
2023-04-02T11:18:07.995Z,98656.47
2023-04-02T11:20:47.314Z,98669.31
2023-04-02T11:23:10.408Z,98666.84
2023-04-02T11:25:24.559Z,98674.47
2023-04-02T11:27:36.614Z,98675.81
2023-04-02T11:29:45.423Z,98684.84
2023-04-02T11:31:48.570Z,98687.56
2023-04-02T11:33:50.403Z,98691.94
2023-04-02T11:35:52.135Z,98694.34
2023-04-02T11:38:00.749Z,98699.53
2023-04-02T11:40:11.207Z,98706.56
2023-04-02T11:42:18.742Z,98701.63
2023-04-02T11:44:26.191Z,98700.50
2023-04-02T11:46:30.557Z,98702.66
2023-04-02T11:48:37.688Z,98717.13
2023-04-02T11:50:44.587Z,98709.16
2023-04-02T11:52:46.263Z,98713.00
2023-04-02T11:54:56.921Z,98730.72
2023-04-02T11:57:21.610Z,98723.88
2023-04-02T11:59:44.312Z,98727.41
2023-04-02T12:02:02.406Z,98730.97
2023-04-02T12:04:41.102Z,98729.06
2023-04-02T12:06:48.507Z,98735.34
2023-04-02T12:09:06.052Z,98742.16
2023-04-02T12:11:07.924Z,98742.16
2023-04-02T12:13:22.077Z,98751.19
2023-04-02T12:15:39.787Z,98753.09
2023-04-02T12:17:41.381Z,98759.94
2023-04-02T12:19:51.692Z,98758.06
2023-04-02T12:21:53.939Z,98759.94
2023-04-02T12:23:58.625Z,98761.84
2023-04-02T12:26:03.732Z,98765.66
2023-04-02T12:28:05.747Z,98764.59
2023-04-02T12:30:19.930Z,98770.81
2023-04-02T12:32:30.301Z,98775.78
2023-04-02T12:34:32.056Z,98776.06
2023-04-02T12:36:40.335Z,98783.78
2023-04-02T12:38:55.838Z,98782.16
2023-04-02T12:41:03.801Z,98787.41
2023-04-02T12:43:22.175Z,98788.53
2023-04-02T12:45:29.100Z,98787.44
2023-04-02T12:47:31.473Z,98794.31
2023-04-02T12:49:46.298Z,98798.69
2023-04-02T12:51:48.584Z,98797.34
2023-04-02T12:53:52.637Z,98791.88
2023-04-02T12:55:59.351Z,98797.34
2023-04-02T12:58:00.937Z,98801.41
2023-04-02T13:00:06.547Z,98810.94
2023-04-02T13:02:20.552Z,98806.03
2023-04-02T13:04:22.092Z,98807.66
2023-04-02T13:06:27.017Z,98814.22
2023-04-02T13:08:33.103Z,98813.63
2023-04-02T13:10:35.322Z,98814.97
2023-04-02T13:12:44.331Z,98824.50
2023-04-02T13:14:52.174Z,98829.97
2023-04-02T13:16:54.900Z,98820.13
2023-04-02T13:19:26.892Z,98821.69
2023-04-02T13:21:35.037Z,98829.09
2023-04-02T13:23:37.823Z,98828.25
2023-04-02T13:25:42.527Z,98832.91
2023-04-02T13:27:46.614Z,98833.16
2023-04-02T13:29:58.214Z,98837.53
2023-04-02T13:32:15.621Z,98837.53
2023-04-02T13:34:22.631Z,98848.16
2023-04-02T13:36:24.307Z,98843.75
2023-04-02T13:38:30.234Z,98855.75
2023-04-02T13:40:37.383Z,98857.09
2023-04-02T13:42:41.401Z,98872.69
2023-04-02T13:44:47.852Z,98874.25
2023-04-02T13:46:52.170Z,98870.94
2023-04-02T13:48:56.422Z,98884.88
2023-04-02T13:50:58.017Z,98877.75
2023-04-02T13:53:10.563Z,98879.56
2023-04-02T13:55:13.868Z,98889.09
2023-04-02T13:57:15.788Z,98898.31
2023-04-02T13:59:20.648Z,98901.53
2023-04-02T14:01:25.922Z,98898.72
2023-04-02T14:03:28.083Z,98908.72
2023-04-02T14:05:53.752Z,98905.56
2023-04-02T14:08:27.322Z,98911.44
2023-04-02T14:11:00.099Z,98911.34
2023-04-02T14:13:27.830Z,98922.19
2023-04-02T14:15:44.015Z,98928.66
2023-04-02T14:17:52.514Z,98928.06
2023-04-02T14:20:16.487Z,98941.38
2023-04-02T14:22:33.203Z,98944.00
2023-04-02T14:25:06.527Z,98944.19
2023-04-02T14:27:42.094Z,98950.13
2023-04-02T14:29:51.014Z,98953.59
2023-04-02T14:32:03.144Z,98955.38
2023-04-02T14:34:27.118Z,98960.25
2023-04-02T14:36:46.890Z,98952.00
2023-04-02T14:39:01.317Z,98963.59
2023-04-02T14:41:13.100Z,98957.56
2023-04-02T14:43:28.226Z,98956.41
2023-04-02T14:45:57.313Z,98965.91
2023-04-02T14:48:13.593Z,98970.53
2023-04-02T14:50:22.136Z,98967.44
2023-04-02T14:52:26.799Z,98976.13
2023-04-02T14:54:33.724Z,98972.78
2023-04-02T14:57:04.276Z,98977.66
2023-04-02T14:59:29.250Z,98979.22
2023-04-02T15:01:40.859Z,98986.56
2023-04-02T15:03:48.687Z,98984.09
2023-04-02T15:05:55.968Z,98986.22
2023-04-02T15:08:12.737Z,98988.63
2023-04-02T15:10:26.367Z,99000.34
2023-04-02T15:12:36.031Z,98991.56
2023-04-02T15:14:50.992Z,99003.78
2023-04-02T15:16:52.544Z,98994.19
2023-04-02T15:18:59.299Z,98999.63
2023-04-02T15:21:19.004Z,99007.47
2023-04-02T15:23:35.026Z,99007.69
2023-04-02T15:25:47.281Z,99009.25
2023-04-02T15:28:20.241Z,99016.59
2023-04-02T15:30:35.466Z,99021.47
2023-04-02T15:32:39.307Z,99023.81
2023-04-02T15:35:01.501Z,99025.97
2023-04-02T15:37:33.883Z,99020.19
2023-04-02T15:40:26.364Z,99022.75
2023-04-02T15:42:30.932Z,99026.78
2023-04-02T15:44:33.906Z,99025.16
2023-04-02T15:46:57.177Z,99028.34
2023-04-02T15:49:26.419Z,99033.44
2023-04-02T15:52:02.441Z,99035.56
2023-04-02T15:54:27.724Z,99038.16
2023-04-02T15:56:49.369Z,99036.88
2023-04-02T15:59:08.502Z,99043.63
2023-04-02T16:01:44.243Z,99047.41
2023-04-02T16:04:20.446Z,99055.78
2023-04-02T16:06:49.448Z,99057.09
2023-04-02T16:09:13.299Z,99065.50
2023-04-02T16:11:15.958Z,99072.00
2023-04-02T16:13:32.925Z,99073.56
2023-04-02T16:15:42.401Z,99075.44
2023-04-02T16:17:48.388Z,99076.50
2023-04-02T16:20:04.392Z,99076.97
2023-04-02T16:22:08.560Z,99090.81
2023-04-02T16:24:13.272Z,99082.06
2023-04-02T16:26:26.622Z,99083.34
2023-04-02T16:28:31.447Z,99090.94
2023-04-02T16:30:41.553Z,99090.94
2023-04-02T16:33:07.771Z,99101.44
2023-04-02T16:37:42.678Z,99112.78
2023-04-02T16:40:11.243Z,99111.16
2023-04-02T16:42:49.762Z,99119.53
2023-04-02T16:45:17.368Z,99121.47
2023-04-02T16:47:49.931Z,99127.13
2023-04-02T16:50:10.889Z,99125.22
2023-04-02T16:52:40.010Z,99130.91
2023-04-02T16:55:00.569Z,99141.81
2023-04-02T16:57:56.630Z,99142.00
2023-04-02T17:00:23.813Z,99141.66
2023-04-02T17:02:46.936Z,99149.44
2023-04-02T17:05:20.427Z,99148.88
2023-04-02T17:07:56.362Z,99162.47
2023-04-02T17:10:30.185Z,99161.25
2023-04-02T17:12:47.266Z,99169.66
2023-04-02T17:14:57.826Z,99179.13
2023-04-02T17:17:02.633Z,99176.63
2023-04-02T17:19:10.286Z,99180.41
2023-04-02T17:21:27.146Z,99179.34
2023-04-02T17:23:31.906Z,99183.50
2023-04-02T17:25:37.141Z,99182.44
2023-04-02T17:27:43.375Z,99186.81
2023-04-02T17:29:48.880Z,99186.00
2023-04-02T17:31:51.995Z,99193.69
2023-04-02T17:33:53.675Z,99193.69
2023-04-02T17:36:02.591Z,99197.25
2023-04-02T17:38:10.184Z,99195.81
2023-04-02T17:40:25.815Z,99201.47
2023-04-02T17:42:48.508Z,99207.66
2023-04-02T17:45:13.458Z,99221.81
2023-04-02T17:47:23.644Z,99221.50
2023-04-02T17:49:36.501Z,99220.09
2023-04-02T17:51:46.811Z,99219.91
2023-04-02T17:54:06.356Z,99237.16
2023-04-02T17:56:28.767Z,99232.41
2023-04-02T17:58:49.115Z,99228.25
2023-04-02T18:01:18.597Z,99245.88
2023-04-02T18:03:39.735Z,99245.63
2023-04-02T18:05:49.183Z,99250.63
2023-04-02T18:08:29.012Z,99253.72
2023-04-02T18:11:00.258Z,99256.22
2023-04-02T18:13:28.712Z,99263.19
2023-04-02T18:15:45.638Z,99268.63
2023-04-02T18:18:01.108Z,99273.00
2023-04-02T18:20:27.768Z,99267.56
2023-04-02T18:22:54.357Z,99276.19
2023-04-02T18:25:12.125Z,99278.09
2023-04-02T18:27:31.737Z,99279.97
2023-04-02T18:29:51.851Z,99284.38
2023-04-02T18:32:16.492Z,99290.63
2023-04-02T18:34:52.318Z,99287.69
2023-04-02T18:37:26.415Z,99289.97
2023-04-02T18:39:36.770Z,99297.66
2023-04-02T18:42:00.576Z,99300.16
2023-04-02T18:44:20.416Z,99308.53
2023-04-02T18:46:43.602Z,99308.31
2023-04-02T18:49:23.476Z,99313.97
2023-04-02T18:51:30.598Z,99318.38
2023-04-02T18:53:34.612Z,99316.50
2023-04-02T18:55:36.949Z,99323.59
2023-04-02T18:57:42.038Z,99326.31
2023-04-02T18:59:56.791Z,99325.50
2023-04-02T19:02:06.454Z,99326.94
2023-04-02T19:04:14.859Z,99334.47
2023-04-02T19:06:21.294Z,99341.19
2023-04-02T19:08:32.805Z,99345.69
2023-04-02T19:10:38.542Z,99343.78
2023-04-02T19:12:40.013Z,99351.72
2023-04-02T19:14:41.773Z,99349.22
2023-04-02T19:16:55.008Z,99353.84
2023-04-02T19:19:11.443Z,99359.28
2023-04-02T19:21:44.468Z,99359.28
2023-04-02T19:24:07.901Z,99359.50
2023-04-02T19:26:18.437Z,99365.34
2023-04-02T19:29:05.193Z,99374.34
2023-04-02T19:31:34.147Z,99376.22
2023-04-02T19:33:48.044Z,99379.16
2023-04-02T19:35:59.330Z,99380.22
2023-04-02T19:38:38.613Z,99385.69
2023-04-02T19:40:55.029Z,99382.13
2023-04-02T19:42:57.120Z,99396.16
2023-04-02T19:44:59.069Z,99395.81
2023-04-02T19:47:01.114Z,99392.25
2023-04-02T19:49:14.744Z,99397.09
2023-04-02T19:51:16.461Z,99400.00
2023-04-02T19:53:18.313Z,99406.69
2023-04-02T19:55:19.795Z,99410.84
2023-04-02T19:57:21.569Z,99411.22
2023-04-02T19:59:25.255Z,99410.19
2023-04-02T20:01:26.942Z,99414.53
2023-04-02T20:03:28.594Z,99416.22
2023-04-02T20:05:30.420Z,99408.28
2023-04-02T20:07:31.928Z,99411.22
2023-04-02T20:09:36.620Z,99407.91
2023-04-02T20:11:39.181Z,99418.19
2023-04-02T20:13:40.978Z,99416.50
2023-04-02T20:15:42.562Z,99423.03
2023-04-02T20:17:44.221Z,99415.06
2023-04-02T20:19:45.826Z,99418.22
2023-04-02T20:21:47.374Z,99421.19
2023-04-02T20:23:53.331Z,99417.84
2023-04-02T20:25:57.068Z,99425.41
2023-04-02T20:28:04.121Z,99425.19
2023-04-02T20:30:06.552Z,99425.19
2023-04-02T20:32:12.071Z,99427.66
2023-04-02T20:34:13.870Z,99429.09
2023-04-02T20:36:17.449Z,99441.69
2023-04-02T20:38:19.257Z,99433.28
2023-04-02T20:40:21.415Z,99430.78
2023-04-02T20:42:22.859Z,99439.19
2023-04-02T20:44:24.409Z,99438.34
2023-04-02T20:46:26.271Z,99442.34
2023-04-02T20:48:30.844Z,99447.78
2023-04-02T20:50:32.512Z,99453.22
2023-04-02T20:52:34.062Z,99458.88
2023-04-02T20:54:35.649Z,99455.34
2023-04-02T20:56:37.183Z,99457.44
2023-04-02T20:58:40.609Z,99467.50
2023-04-02T21:00:43.671Z,99457.00
2023-04-02T21:02:56.966Z,99457.00
2023-04-02T21:04:58.534Z,99465.56
2023-04-02T21:06:59.998Z,99460.97
2023-04-02T21:09:04.841Z,99463.69
2023-04-02T21:11:07.852Z,99467.44
2023-04-02T21:13:09.323Z,99472.66
2023-04-02T21:15:12.663Z,99476.22
2023-04-02T21:17:16.003Z,99482.28
2023-04-02T21:19:26.497Z,99476.38
2023-04-02T21:21:28.517Z,99482.44
2023-04-02T21:23:30.968Z,99481.38
2023-04-02T21:25:32.551Z,99479.28
2023-04-02T21:27:34.944Z,99484.50
2023-04-02T21:29:38.928Z,99480.94
2023-04-02T21:31:41.094Z,99483.44
2023-04-02T21:33:46.302Z,99483.00
2023-04-02T21:35:55.248Z,99487.41
2023-04-02T21:37:56.717Z,99489.88
2023-04-02T21:40:00.789Z,99483.41
2023-04-02T21:42:02.477Z,99490.50
2023-04-02T21:44:05.907Z,99491.34
2023-04-02T21:46:07.599Z,99497.00
2023-04-02T21:48:09.883Z,99491.56
2023-04-02T21:50:11.528Z,99492.19
2023-04-02T21:52:13.074Z,99501.19
2023-04-02T21:54:17.918Z,99501.78
2023-04-02T21:56:30.677Z,99504.50
2023-04-02T21:58:32.240Z,99498.22
2023-04-02T22:00:38.034Z,99506.41
2023-04-02T22:02:40.034Z,99500.94
2023-04-02T22:04:41.959Z,99508.88
2023-04-02T22:06:44.793Z,99514.31
2023-04-02T22:08:52.865Z,99515.78
2023-04-02T22:10:54.481Z,99518.50
2023-04-02T22:12:56.454Z,99524.78
2023-04-02T22:14:58.831Z,99517.44
2023-04-02T22:17:03.763Z,99519.13
2023-04-02T22:19:07.903Z,99516.16
2023-04-02T22:21:10.518Z,99517.00
2023-04-02T22:23:11.970Z,99520.78
2023-04-02T22:25:13.492Z,99517.00
2023-04-02T22:27:16.193Z,99522.66
2023-04-02T22:29:17.912Z,99516.59
2023-04-02T22:31:24.640Z,99517.44
2023-04-02T22:33:27.193Z,99527.28
2023-04-02T22:35:30.952Z,99516.16
2023-04-02T22:37:33.918Z,99524.09
2023-04-02T22:39:36.978Z,99521.19
2023-04-02T22:41:41.285Z,99526.38
2023-04-02T22:43:44.770Z,99517.78
2023-04-02T22:45:47.745Z,99518.63
2023-04-02T22:47:50.064Z,99530.34
2023-04-02T22:49:51.532Z,99520.50
2023-04-02T22:52:00.450Z,99527.84
2023-04-02T22:54:01.943Z,99529.72
2023-04-02T22:56:06.931Z,99516.34
2023-04-02T22:58:08.714Z,99519.28
2023-04-02T23:00:16.229Z,99525.78
2023-04-02T23:02:19.080Z,99532.91
2023-04-02T23:04:20.794Z,99529.09
2023-04-02T23:06:25.342Z,99530.19
2023-04-02T23:08:26.895Z,99534.56
2023-04-02T23:10:29.072Z,99536.25
2023-04-02T23:12:32.425Z,99524.28
2023-04-02T23:14:33.998Z,99524.06
2023-04-02T23:16:35.647Z,99530.97
2023-04-02T23:18:39.211Z,99528.00
2023-04-02T23:20:41.177Z,99522.34
2023-04-02T23:22:43.593Z,99520.22
2023-04-02T23:24:45.214Z,99528.16
2023-04-02T23:26:46.745Z,99527.94
2023-04-02T23:28:48.961Z,99519.31
2023-04-02T23:30:50.656Z,99524.31
2023-04-02T23:32:52.185Z,99526.63
2023-04-02T23:34:53.858Z,99522.84
2023-04-02T23:36:55.328Z,99524.50
2023-04-02T23:39:11.638Z,99525.34
2023-04-02T23:41:15.162Z,99528.66
2023-04-02T23:43:16.657Z,99530.94
2023-04-02T23:45:18.092Z,99523.38
2023-04-02T23:47:19.513Z,99531.13
2023-04-02T23:49:21.088Z,99523.53
2023-04-02T23:51:23.902Z,99525.81
2023-04-02T23:53:25.731Z,99513.63
2023-04-02T23:55:29.636Z,99524.94
2023-04-02T23:57:31.434Z,99514.38
2023-04-02T23:59:33.024Z,99520.00
